createdAt,value
2022-11-22T00:03:57.927Z,39.23
2022-11-22T00:10:22.453Z,39.34
2022-11-22T00:16:46.913Z,39.43
2022-11-22T00:23:11.477Z,39.53
2022-11-22T00:29:35.877Z,39.62
2022-11-22T00:36:00.225Z,39.73
2022-11-22T00:42:24.572Z,39.84
2022-11-22T00:48:48.924Z,39.90
2022-11-22T00:55:13.229Z,40.00
2022-11-22T01:01:37.605Z,40.07
2022-11-22T01:08:02.138Z,40.18
2022-11-22T01:14:26.456Z,40.30
2022-11-22T01:20:51.004Z,40.35
2022-11-22T01:27:15.018Z,40.45
2022-11-22T01:33:39.281Z,40.54
2022-11-22T01:40:03.641Z,40.64
2022-11-22T01:46:31.012Z,40.76
2022-11-22T01:52:55.299Z,40.86
2022-11-22T01:59:19.618Z,40.97
2022-11-22T02:05:44.052Z,41.10
2022-11-22T02:12:08.457Z,41.24
2022-11-22T02:18:32.789Z,41.33
2022-11-22T02:25:06.000Z,41.40
2022-11-22T02:31:30.397Z,41.44
2022-11-22T02:37:55.221Z,41.63
2022-11-22T02:44:19.541Z,41.88
2022-11-22T02:50:43.926Z,42.14
2022-11-22T02:57:08.239Z,42.25
2022-11-22T03:03:32.659Z,42.34
2022-11-22T03:09:56.938Z,42.42
2022-11-22T03:16:21.350Z,42.48
2022-11-22T03:22:45.667Z,42.50
2022-11-22T03:29:10.096Z,42.54
2022-11-22T03:35:34.491Z,42.66
2022-11-22T03:41:58.938Z,42.78
2022-11-22T03:48:23.312Z,42.77
2022-11-22T03:54:47.746Z,42.77
2022-11-22T04:01:16.612Z,42.77
2022-11-22T04:07:41.492Z,42.84
2022-11-22T04:14:04.447Z,42.91
2022-11-22T04:20:27.401Z,42.96
2022-11-22T04:26:55.046Z,43.00
2022-11-22T04:33:19.463Z,43.06
2022-11-22T04:39:43.843Z,43.16
2022-11-22T04:46:08.460Z,43.16
2022-11-22T04:52:31.432Z,43.15
2022-11-22T04:58:55.742Z,43.17
2022-11-22T05:05:19.981Z,43.21
2022-11-22T05:11:44.371Z,43.47
2022-11-22T05:18:08.720Z,43.56
2022-11-22T05:24:33.072Z,43.55
2022-11-22T05:30:57.437Z,43.52
2022-11-22T05:37:21.731Z,43.53
2022-11-22T05:43:46.032Z,43.59
2022-11-22T05:50:10.451Z,43.58
2022-11-22T05:56:34.842Z,43.49
2022-11-22T06:02:59.511Z,43.35
2022-11-22T06:09:23.896Z,43.21
2022-11-22T06:15:48.432Z,43.01
2022-11-22T06:22:19.339Z,42.81
2022-11-22T06:28:43.780Z,42.56
2022-11-22T06:35:08.191Z,42.33
2022-11-22T06:41:32.603Z,42.06
2022-11-22T06:47:57.024Z,41.79
2022-11-22T06:54:12.802Z,41.55
2022-11-22T07:00:37.681Z,41.30
2022-11-22T07:07:02.049Z,41.09
2022-11-22T07:13:26.503Z,40.86
2022-11-22T07:19:50.886Z,40.65
2022-11-22T07:26:15.195Z,40.53
2022-11-22T07:32:39.504Z,40.40
2022-11-22T07:39:03.586Z,40.30
2022-11-22T07:45:27.940Z,40.22
2022-11-22T07:51:52.352Z,40.23
2022-11-22T07:58:16.681Z,40.20
2022-11-22T08:04:41.057Z,40.37
2022-11-22T08:11:04.735Z,40.77
2022-11-22T08:17:29.035Z,40.96
2022-11-22T08:23:53.460Z,41.03
2022-11-22T08:30:07.888Z,41.03
2022-11-22T08:36:32.207Z,41.03
2022-11-22T08:42:56.476Z,41.06
2022-11-22T08:49:20.787Z,41.01
2022-11-22T08:55:45.230Z,40.95
2022-11-22T09:02:12.397Z,40.83
2022-11-22T09:08:40.381Z,40.67
2022-11-22T09:15:08.093Z,40.50
2022-11-22T09:21:32.580Z,40.37
2022-11-22T09:27:56.998Z,40.26
2022-11-22T09:34:21.312Z,40.14
2022-11-22T09:40:45.911Z,40.01
2022-11-22T09:47:10.322Z,39.97
2022-11-22T09:53:34.798Z,40.02
2022-11-22T10:00:03.546Z,40.05
2022-11-22T10:06:30.397Z,40.19
2022-11-22T10:13:10.031Z,40.26
2022-11-22T10:19:46.561Z,40.38
2022-11-22T10:26:19.951Z,40.43
2022-11-22T10:32:50.774Z,40.45
2022-11-22T10:39:20.967Z,40.43
2022-11-22T10:45:57.529Z,40.38
2022-11-22T10:52:34.613Z,40.31
2022-11-22T10:59:02.453Z,40.25
2022-11-22T11:05:06.901Z,40.18
2022-11-22T11:11:31.412Z,40.14
2022-11-22T11:17:58.348Z,40.05
2022-11-22T11:24:22.662Z,40.01
2022-11-22T11:31:02.091Z,39.93
2022-11-22T11:37:26.468Z,39.85
2022-11-22T11:43:53.450Z,39.78
2022-11-22T11:50:23.569Z,39.71
2022-11-22T11:57:00.609Z,39.64
2022-11-22T12:03:24.872Z,39.57
2022-11-22T12:09:49.315Z,39.55
2022-11-22T12:16:13.727Z,39.68
2022-11-22T12:23:02.420Z,39.79
2022-11-22T12:29:26.858Z,39.86
2022-11-22T12:35:56.920Z,39.90
2022-11-22T12:42:23.229Z,39.94
2022-11-22T12:48:48.978Z,39.89
2022-11-22T12:55:16.189Z,39.87
2022-11-22T13:01:40.636Z,39.85
2022-11-22T13:08:13.802Z,39.88
2022-11-22T13:14:56.248Z,39.88
2022-11-22T13:21:41.010Z,39.84
2022-11-22T13:28:05.506Z,39.81
2022-11-22T13:34:38.862Z,39.77
2022-11-22T13:41:12.182Z,39.81
2022-11-22T13:47:54.746Z,39.83
2022-11-22T13:54:22.447Z,39.89
2022-11-22T14:00:53.020Z,40.09
2022-11-22T14:07:20.923Z,40.57
2022-11-22T14:13:51.310Z,41.13
2022-11-22T14:20:28.164Z,41.90
2022-11-22T14:27:01.323Z,42.90
2022-11-22T14:33:28.335Z,43.87
2022-11-22T14:39:50.966Z,44.35
2022-11-22T14:46:51.243Z,45.06
2022-11-22T14:53:05.377Z,44.96
2022-11-22T14:59:30.157Z,44.88
2022-11-22T15:09:20.358Z,44.88
2022-11-22T15:12:53.733Z,44.65
2022-11-22T15:59:49.805Z,43.78
2022-11-22T16:06:15.068Z,43.71
2022-11-22T16:12:39.411Z,43.58
2022-11-22T16:19:15.911Z,43.44
2022-11-22T16:25:38.363Z,43.42
2022-11-22T16:32:08.438Z,43.35
2022-11-22T16:38:32.818Z,43.31
2022-11-22T16:44:40.527Z,43.30
2022-11-22T16:51:04.979Z,43.31
2022-11-22T16:57:29.386Z,43.27
2022-11-22T17:03:56.277Z,43.20
2022-11-22T17:10:20.598Z,43.13
2022-11-22T17:16:45.111Z,43.04
2022-11-22T17:23:09.998Z,42.95
2022-11-22T17:29:49.935Z,42.86
2022-11-22T17:36:15.162Z,42.78
2022-11-22T17:42:19.710Z,42.68
2022-11-22T17:48:23.965Z,42.59
2022-11-22T17:54:49.117Z,42.50
2022-11-22T18:01:13.764Z,42.39
2022-11-22T18:07:38.085Z,42.27
2022-11-22T18:14:02.433Z,42.16
2022-11-22T18:20:26.532Z,42.08
2022-11-22T18:26:50.882Z,42.03
2022-11-22T18:32:48.287Z,41.95
2022-11-22T18:39:12.708Z,41.95
2022-11-22T18:45:36.999Z,41.94
2022-11-22T18:52:01.581Z,41.98
2022-11-22T18:58:27.659Z,41.98
2022-11-22T19:04:53.917Z,41.93
2022-11-22T19:11:18.529Z,41.80
2022-11-22T19:17:42.914Z,41.78
2022-11-22T19:24:00.176Z,41.73
2022-11-22T19:30:24.493Z,41.67
2022-11-22T19:36:57.816Z,41.59
2022-11-22T19:43:22.121Z,41.51
2022-11-22T19:49:46.529Z,41.48
2022-11-22T19:56:10.956Z,41.42
2022-11-22T20:02:35.333Z,41.37
2022-11-22T20:08:59.087Z,41.27
2022-11-22T20:15:23.452Z,41.19
2022-11-22T20:21:47.839Z,41.15
2022-11-22T20:28:12.301Z,41.09
2022-11-22T20:34:36.798Z,41.04
2022-11-22T20:41:01.227Z,40.99
2022-11-22T20:47:25.656Z,40.92
2022-11-22T20:53:50.056Z,40.79
2022-11-22T21:00:14.403Z,40.76
2022-11-22T21:06:38.791Z,40.68
2022-11-22T21:13:03.217Z,40.65
2022-11-22T21:19:10.143Z,40.60
2022-11-22T21:25:34.518Z,40.55
2022-11-22T21:31:58.907Z,40.49
2022-11-22T21:38:29.642Z,40.51
2022-11-22T21:44:55.571Z,40.53
2022-11-22T21:51:19.958Z,40.58
2022-11-22T21:57:44.372Z,40.50
2022-11-22T22:04:02.652Z,40.47
2022-11-22T22:10:19.738Z,40.44
2022-11-22T22:16:44.090Z,40.43
2022-11-22T22:23:08.526Z,40.44
2022-11-22T22:29:33.033Z,40.44
2022-11-22T22:35:57.648Z,40.45
2022-11-22T22:42:22.035Z,40.49
2022-11-22T22:48:46.457Z,40.50
2022-11-22T22:55:10.810Z,40.55
2022-11-22T23:01:35.119Z,40.60
2022-11-22T23:07:59.594Z,40.62
2022-11-22T23:14:23.921Z,40.70
2022-11-22T23:20:48.472Z,40.79
2022-11-22T23:27:12.820Z,40.82
2022-11-22T23:33:37.267Z,40.93
2022-11-22T23:40:01.641Z,41.04
2022-11-22T23:46:25.909Z,41.14
2022-11-22T23:52:50.296Z,41.23
2022-11-22T23:59:14.625Z,41.28
